Moko, Arkansas
Current Conditions -  °F | °C
As of 2:53 PM on Monday 22 Dec 2014 (Local Time) from KUNO Reporting Station
Light Rain Light Rain  
Wind Chill: 44°   Ceiling: 400
Heat Index: 49°   Visibility: 4mi
Dew Point: 46°   Wind: 12mph
Humidity: 90%   Direction: 180°S
Pressure: 29.53"   Gusts: NA
Location:  36.47°N, 91.84°W
Report Text: KUNO 222053Z AUTO 18010KT 4SM -RA BR OVC004 09/08 A2953 RMK AO2 RAB48 SLP000 P0000 60002 T00940078 56025
Loading
Personal Weather Stations






























Interactive Weather Map New forecast layout! Learn more

10-Day Weather Forecast

Advertisements
Track Severe Weather on mobile